Olivia — LG6829 — position and weather

sailwx.info

Track history (hours):
 
Tides and Currents Weather Stations Pressure Air Temp Water Temp Dewpoint Dewpoint Depression Visibility Wind Speed Wind Dir Waves Ship Positions

Olivia

Last reported at 2018-Jun-17 12:14 UTC. Time now 2018-Jun-19 15:42 UTC.
Position N 37°40' W 000°41'.

Length 15 m.

Type: Sailing vessel. MMSI: 258107020.

Date/timePositionNaut miles runAvg speedWind from/ knotsBaromVisibWave heightAir tempDewpointWater temp
2018-Jun-17 12:14N 37°40' W 000°41'2 8.2
2018-Jun-17 11:58N 37°42' W 000°40'4 8.2
2018-Jun-17 11:30N 37°45' W 000°38'6 8.0
2018-Jun-17 10:45N 37°51' W 000°36'4 8.1
2018-Jun-17 10:17N 37°55' W 000°36'2 6.7
2018-Jun-17 10:00N 37°57' W 000°35'27 1.2
2018-Jun-16 11:53N 38°21' W 000°23'3 8.0
2018-Jun-16 11:29N 38°23' W 000°19'7 8.0
2018-Jun-16 10:37N 38°27' W 000°12'2 8.1
2018-Jun-16 10:19N 38°28' W 000°09'3 8.0
2018-Jun-16 10:00N 38°30' W 000°06'4 7.1
2018-Jun-16 09:25N 38°32' W 000°02'3 7.4
2018-Jun-16 08:59N 38°34' E 000°01'  
Track history (hours):
 
Tides and Currents Weather Stations Pressure Air Temp Water Temp Dewpoint Dewpoint Depression Visibility Wind Speed Wind Dir Waves Ship Positions

Olivia

Last reported at 2018-Jun-17 12:14 UTC. Time now 2018-Jun-19 15:42 UTC.
Position N 37°40' W 000°41'.

Length 15 m.

Type: Sailing vessel. MMSI: 258107020.

Date/timePositionNaut miles runAvg speedWind from/ knotsBaromVisibWave heightAir tempDewpointWater temp
2018-Jun-17 12:14N 37°40' W 000°41'2 8.2
2018-Jun-17 11:58N 37°42' W 000°40'4 8.2
2018-Jun-17 11:30N 37°45' W 000°38'6 8.0
2018-Jun-17 10:45N 37°51' W 000°36'4 8.1
2018-Jun-17 10:17N 37°55' W 000°36'2 6.7
2018-Jun-17 10:00N 37°57' W 000°35'27 1.2
2018-Jun-16 11:53N 38°21' W 000°23'3 8.0
2018-Jun-16 11:29N 38°23' W 000°19'7 8.0
2018-Jun-16 10:37N 38°27' W 000°12'2 8.1
2018-Jun-16 10:19N 38°28' W 000°09'3 8.0
2018-Jun-16 10:00N 38°30' W 000°06'4 7.1
2018-Jun-16 09:25N 38°32' W 000°02'3 7.4
2018-Jun-16 08:59N 38°34' E 000°01'  

Dump ship's entire track history